Time;durP1;ratioP1;P1;durP2;ratioP2;P2;SDS_P1;SDS_P2;PMS_P1;PMS_P2;Temp;Humidity;BMP_temperature;BMP_pressure;BME280_temperature;BME280_humidity;BME280_pressure;Samples;Min_cycle;Max_cycle;Signal;HPM_P1;HPM_P2
2023/09/20 00:01:54;;;;;;;3.60;0.80;;;19.60;68.50;;;;;;2589913;52;20925;-67
2023/09/20 00:04:21;;;;;;;2.67;1.05;;;19.60;68.40;;;;;;2589120;52;21430;-68
2023/09/20 00:06:47;;;;;;;2.65;1.05;;;19.60;68.60;;;;;;2343774;53;20932;-67
2023/09/20 00:09:15;;;;;;;4.00;0.90;;;19.60;68.70;;;;;;2342842;53;20908;-67
2023/09/20 00:11:44;;;;;;;2.50;1.00;;;19.60;68.70;;;;;;2589703;52;21406;-66
2023/09/20 00:14:10;;;;;;;1.83;0.80;;;19.50;68.70;;;;;;2589121;52;20997;-67
2023/09/20 00:16:37;;;;;;;2.15;0.90;;;19.60;68.80;;;;;;2589964;52;20947;-68
2023/09/20 00:19:03;;;;;;;2.05;0.85;;;19.60;68.80;;;;;;2343188;53;21279;-68
2023/09/20 00:21:30;;;;;;;2.25;0.70;;;19.60;68.80;;;;;;2589140;52;21461;-66
2023/09/20 00:23:56;;;;;;;2.17;0.80;;;19.60;68.70;;;;;;2601685;52;20917;-69
2023/09/20 00:26:23;;;;;;;1.73;0.73;;;19.50;68.60;;;;;;2594222;52;20980;-69
2023/09/20 00:28:51;;;;;;;2.12;0.93;;;19.50;68.60;;;;;;2343832;53;20925;-68
2023/09/20 00:31:18;;;;;;;2.47;0.70;;;19.50;68.70;;;;;;2588882;52;20980;-68
2023/09/20 00:33:44;;;;;;;2.00;0.82;;;19.50;68.80;;;;;;2590192;52;21761;-67
2023/09/20 00:36:18;;;;;;;2.10;0.90;;;19.50;68.80;;;;;;2589676;52;20972;-68
2023/09/20 00:38:45;;;;;;;1.40;0.60;;;19.50;68.50;;;;;;2343014;53;20916;-68
2023/09/20 00:41:11;;;;;;;1.77;0.85;;;19.50;68.90;;;;;;2589231;52;20968;-67
2023/09/20 00:43:38;;;;;;;3.17;0.80;;;19.50;68.90;;;;;;2589785;52;20961;-67
2023/09/20 00:46:04;;;;;;;2.20;0.93;;;19.40;68.80;;;;;;2589014;52;20964;-67
2023/09/20 00:48:31;;;;;;;2.55;0.90;;;19.40;68.80;;;;;;2341441;53;20953;-68
2023/09/20 00:50:57;;;;;;;2.87;1.10;;;19.40;68.80;;;;;;2351460;53;20926;-66
2023/09/20 00:53:24;;;;;;;1.70;0.80;;;19.40;68.80;;;;;;2621506;52;20927;-67
2023/09/20 00:55:52;;;;;;;1.55;0.70;;;19.40;68.90;;;;;;2370215;53;20989;-67
2023/09/20 00:58:23;;;;;;;2.03;0.77;;;19.40;68.80;;;;;;2621569;52;20943;-67
2023/09/20 01:00:52;;;;;;;1.58;0.70;;;19.30;68.80;;;;;;2593977;52;21002;-65
2023/09/20 01:03:18;;;;;;;2.22;0.77;;;19.30;68.80;;;;;;2369970;53;20977;-67
2023/09/20 01:05:46;;;;;;;2.30;0.80;;;19.30;68.80;;;;;;2371537;53;20926;-68
2023/09/20 01:08:17;;;;;;;1.90;0.80;;;19.30;68.90;;;;;;2371510;53;21022;-66
2023/09/20 01:10:45;;;;;;;2.30;0.93;;;19.30;68.90;;;;;;2608831;52;20978;-65
2023/09/20 01:13:12;;;;;;;2.55;0.93;;;19.30;68.90;;;;;;2610690;52;21754;-67
2023/09/20 01:15:39;;;;;;;1.85;0.80;;;19.20;68.80;;;;;;2371879;53;21018;-66
2023/09/20 01:18:07;;;;;;;2.15;0.70;;;19.20;68.90;;;;;;2371099;53;20962;-67
2023/09/20 01:20:35;;;;;;;2.47;0.80;;;19.20;68.90;;;;;;2622761;52;21794;-66
2023/09/20 01:23:02;;;;;;;2.60;1.02;;;19.20;69.00;;;;;;2371002;53;20935;-67
2023/09/20 01:25:33;;;;;;;2.25;0.82;;;19.10;69.00;;;;;;2604224;52;21049;-69
2023/09/20 01:28:01;;;;;;;2.40;0.90;;;19.10;68.80;;;;;;2610344;52;20930;-65
2023/09/20 01:30:28;;;;;;;2.08;0.82;;;19.10;69.00;;;;;;2370807;53;20985;-67
2023/09/20 01:32:56;;;;;;;2.95;1.00;;;19.10;69.10;;;;;;2623734;52;20950;-68
2023/09/20 01:35:23;;;;;;;1.95;0.80;;;19.10;69.10;;;;;;2370586;53;21730;-69
2023/09/20 01:37:50;;;;;;;2.17;0.82;;;19.10;69.10;;;;;;2371338;53;21816;-67
2023/09/20 01:40:18;;;;;;;1.85;0.80;;;19.00;69.10;;;;;;2370249;53;20945;-68
2023/09/20 01:42:48;;;;;;;1.33;0.65;;;19.00;69.20;;;;;;2355358;53;21788;-69
2023/09/20 01:45:18;;;;;;;2.15;0.88;;;19.10;69.40;;;;;;2617189;52;20934;-68
2023/09/20 01:48:06;;;;;;;1.65;0.52;;;19.00;69.30;;;;;;2370855;53;21443;-66
2023/09/20 01:50:33;;;;;;;1.33;0.60;;;19.00;69.30;;;;;;2363768;53;21005;-67
2023/09/20 01:53:00;;;;;;;2.33;0.77;;;19.00;69.40;;;;;;2349453;53;21463;-67
2023/09/20 01:55:30;;;;;;;1.65;0.68;;;19.00;69.40;;;;;;2360773;53;20925;-70
2023/09/20 01:57:59;;;;;;;1.60;0.68;;;19.00;69.40;;;;;;2623694;52;20891;-69
2023/09/20 02:00:32;;;;;;;2.05;0.90;;;19.00;69.50;;;;;;2620956;52;20938;-68
2023/09/20 02:03:00;;;;;;;1.98;1.02;;;18.90;69.40;;;;;;2622448;52;20918;-70
2023/09/20 02:05:27;;;;;;;1.85;0.70;;;18.90;69.40;;;;;;2621130;52;20918;-68
2023/09/20 02:07:54;;;;;;;2.62;0.80;;;18.90;69.40;;;;;;2369907;53;20951;-67
2023/09/20 02:10:22;;;;;;;2.05;0.90;;;18.90;69.50;;;;;;2595045;52;21352;-68
2023/09/20 02:12:53;;;;;;;1.58;0.65;;;18.90;69.60;;;;;;2623061;52;21341;-67
2023/09/20 02:15:21;;;;;;;2.00;0.80;;;18.90;69.60;;;;;;2607419;52;20971;-67
2023/09/20 02:17:47;;;;;;;1.50;0.70;;;18.90;69.70;;;;;;2358954;53;21463;-66
2023/09/20 02:20:20;;;;;;;2.12;0.70;;;18.90;69.70;;;;;;2354016;53;20947;-67
2023/09/20 02:22:50;;;;;;;2.40;1.00;;;18.90;69.80;;;;;;2623715;52;21062;-68
2023/09/20 02:25:20;;;;;;;2.03;0.65;;;18.90;69.70;;;;;;2372118;53;20950;-67
2023/09/20 02:27:50;;;;;;;2.65;0.80;;;18.90;69.70;;;;;;2596364;52;20990;-67
2023/09/20 02:30:24;;;;;;;1.92;0.80;;;18.90;69.70;;;;;;2370661;53;21405;-68
2023/09/20 02:32:52;;;;;;;2.03;0.60;;;18.90;69.70;;;;;;2623161;52;21740;-66
2023/09/20 02:35:23;;;;;;;1.75;0.70;;;18.90;69.70;;;;;;2370897;53;20914;-67
2023/09/20 02:37:50;;;;;;;1.87;0.80;;;18.90;69.50;;;;;;2623859;52;21388;-66
2023/09/20 02:40:17;;;;;;;2.10;0.70;;;18.80;69.70;;;;;;2623407;52;21010;-70
2023/09/20 02:42:44;;;;;;;2.20;0.90;;;18.80;69.70;;;;;;2624068;52;21801;-67
2023/09/20 02:45:12;;;;;;;2.67;0.77;;;18.80;69.70;;;;;;2370415;53;21905;-68
2023/09/20 02:47:39;;;;;;;1.50;0.60;;;18.80;69.70;;;;;;2371557;53;21090;-69
2023/09/20 02:50:13;;;;;;;2.17;0.70;;;18.80;69.80;;;;;;2622848;52;21049;-69
2023/09/20 02:52:40;;;;;;;2.40;0.80;;;18.80;69.60;;;;;;2622498;52;21360;-69
2023/09/20 02:55:07;;;;;;;2.40;0.90;;;18.80;69.90;;;;;;2371008;53;20938;-69
2023/09/20 02:57:37;;;;;;;2.20;1.08;;;18.70;69.80;;;;;;2371389;53;21914;-68
2023/09/20 03:00:06;;;;;;;2.20;1.00;;;18.70;69.80;;;;;;2622582;52;20907;-66
2023/09/20 03:02:36;;;;;;;2.20;0.90;;;18.70;69.80;;;;;;2622562;52;20926;-69
2023/09/20 03:05:03;;;;;;;2.62;0.88;;;18.70;69.70;;;;;;2624235;52;20950;-69
2023/09/20 03:07:32;;;;;;;2.28;0.93;;;18.70;69.90;;;;;;2623216;52;20934;-69
2023/09/20 03:09:59;;;;;;;2.05;0.80;;;18.70;69.80;;;;;;2371336;53;20915;-67
2023/09/20 03:12:27;;;;;;;1.30;0.65;;;18.70;69.90;;;;;;2370910;53;20961;-68
2023/09/20 03:14:53;;;;;;;2.60;0.90;;;18.70;69.90;;;;;;2371566;53;21403;-67
2023/09/20 03:17:20;;;;;;;1.90;0.60;;;18.70;70.60;;;;;;2371386;53;20950;-67
2023/09/20 03:19:53;;;;;;;2.85;1.10;;;18.70;69.90;;;;;;2344520;53;21444;-67
2023/09/20 03:22:19;;;;;;;3.75;1.20;;;18.60;69.60;;;;;;2579948;52;20997;-66
2023/09/20 03:24:47;;;;;;;3.00;1.30;;;18.60;69.80;;;;;;2358306;53;20930;-66
2023/09/20 03:27:15;;;;;;;2.25;0.90;;;18.60;69.90;;;;;;2623571;52;20974;-67
2023/09/20 03:29:46;;;;;;;2.28;0.82;;;18.60;69.90;;;;;;2623783;52;21541;-67
2023/09/20 03:32:15;;;;;;;2.20;1.02;;;18.60;70.00;;;;;;2372767;53;20981;-67
2023/09/20 03:34:41;;;;;;;2.00;0.90;;;18.60;70.00;;;;;;2594097;52;20914;-68
2023/09/20 03:37:10;;;;;;;3.00;1.00;;;18.60;70.10;;;;;;2623341;52;21726;-68
2023/09/20 03:39:40;;;;;;;2.15;0.98;;;18.60;70.10;;;;;;2370739;53;20942;-68
2023/09/20 03:42:11;;;;;;;1.92;0.82;;;18.60;70.10;;;;;;2360232;53;20994;-70
2023/09/20 03:44:39;;;;;;;1.73;0.80;;;18.60;70.10;;;;;;2362026;53;21027;-68
2023/09/20 03:47:08;;;;;;;2.70;0.82;;;18.50;70.10;;;;;;2371216;53;21462;-68
2023/09/20 03:49:34;;;;;;;1.70;0.62;;;18.50;70.10;;;;;;2623029;52;21005;-67
2023/09/20 03:52:01;;;;;;;1.70;0.80;;;18.50;70.10;;;;;;2623229;52;20994;-66
2023/09/20 03:54:29;;;;;;;2.25;0.80;;;18.50;70.10;;;;;;2372635;53;20946;-69
2023/09/20 03:56:55;;;;;;;3.10;0.80;;;18.50;70.20;;;;;;2623972;52;20982;-67
2023/09/20 03:59:21;;;;;;;2.05;0.90;;;18.50;70.20;;;;;;2372404;53;20983;-68
2023/09/20 04:01:48;;;;;;;1.80;0.70;;;18.50;70.20;;;;;;2623322;52;21009;-67
2023/09/20 04:04:16;;;;;;;2.97;0.90;;;18.50;70.30;;;;;;2623029;52;20938;-67
2023/09/20 04:06:47;;;;;;;1.92;0.80;;;18.50;70.30;;;;;;2371373;53;20921;-69
2023/09/20 04:09:20;;;;;;;2.62;0.98;;;18.40;70.30;;;;;;2623881;52;22656;-70
2023/09/20 04:11:47;;;;;;;2.42;0.75;;;18.50;70.30;;;;;;2370900;53;21011;-66
2023/09/20 04:14:14;;;;;;;3.28;0.80;;;18.50;70.60;;;;;;2623667;52;20910;-66
2023/09/20 04:16:41;;;;;;;2.12;0.90;;;18.50;70.70;;;;;;2613236;52;21017;-66
2023/09/20 04:19:08;;;;;;;3.47;0.90;;;18.50;70.70;;;;;;2605675;52;21018;-68
2023/09/20 04:21:36;;;;;;;1.60;0.73;;;18.60;70.80;;;;;;2623419;52;20957;-67
2023/09/20 04:24:05;;;;;;;1.73;0.70;;;18.50;70.80;;;;;;2623992;52;21468;-67
2023/09/20 04:26:31;;;;;;;2.58;0.90;;;18.50;70.70;;;;;;2355605;53;20903;-66
2023/09/20 04:28:58;;;;;;;1.92;0.73;;;18.50;70.70;;;;;;2616862;52;21002;-67
2023/09/20 04:31:25;;;;;;;2.50;0.90;;;18.50;70.70;;;;;;2371433;53;20935;-66
2023/09/20 04:33:52;;;;;;;3.50;1.05;;;18.60;70.80;;;;;;2370989;53;20926;-67
2023/09/20 04:36:19;;;;;;;2.53;1.10;;;18.60;70.80;;;;;;2623373;52;21097;-67
2023/09/20 04:38:47;;;;;;;2.28;1.00;;;18.60;70.80;;;;;;2594748;52;21944;-69
2023/09/20 04:41:17;;;;;;;3.03;1.15;;;18.60;70.90;;;;;;2622786;52;20934;-67
2023/09/20 04:43:43;;;;;;;2.30;1.00;;;18.60;70.90;;;;;;2370400;53;21364;-70
2023/09/20 04:46:10;;;;;;;2.90;1.17;;;18.60;70.90;;;;;;2623022;52;21524;-67
2023/09/20 04:48:41;;;;;;;2.62;1.10;;;18.60;71.00;;;;;;2623177;52;21038;-69
2023/09/20 04:51:20;;;;;;;2.92;1.23;;;18.60;70.80;;;;;;2370719;53;20918;-66
2023/09/20 04:53:47;;;;;;;4.03;1.52;;;18.60;70.50;;;;;;2371012;53;20945;-67
2023/09/20 04:56:16;;;;;;;3.62;1.15;;;18.60;70.90;;;;;;2371076;53;20906;-67
2023/09/20 04:58:46;;;;;;;2.72;1.00;;;18.60;70.80;;;;;;2370318;53;20942;-68
2023/09/20 05:01:14;;;;;;;2.78;1.08;;;18.60;70.80;;;;;;2366796;53;20973;-69
2023/09/20 05:03:41;;;;;;;1.77;0.70;;;18.60;70.80;;;;;;2604757;52;20917;-69
2023/09/20 05:06:07;;;;;;;2.00;0.88;;;18.60;70.80;;;;;;2601350;52;20982;-68
2023/09/20 05:08:34;;;;;;;2.65;1.10;;;18.60;70.70;;;;;;2617008;52;20927;-66
2023/09/20 05:11:03;;;;;;;2.15;0.90;;;18.60;70.70;;;;;;2624068;52;21038;-67
2023/09/20 05:13:29;;;;;;;2.10;1.00;;;18.60;70.70;;;;;;2595196;52;20938;-67
2023/09/20 05:15:55;;;;;;;2.08;0.80;;;18.60;70.70;;;;;;2371160;53;21828;-68
2023/09/20 05:18:22;;;;;;;2.35;0.80;;;18.60;70.60;;;;;;2370856;53;21478;-68
2023/09/20 05:20:49;;;;;;;3.37;1.08;;;18.60;70.60;;;;;;2371298;53;21479;-71
2023/09/20 05:23:15;;;;;;;2.30;0.93;;;18.60;70.60;;;;;;2621773;52;20990;-67
2023/09/20 05:25:42;;;;;;;2.95;0.98;;;18.60;70.70;;;;;;2622673;52;20945;-67
2023/09/20 05:28:10;;;;;;;2.97;1.00;;;18.60;70.70;;;;;;2371569;53;20990;-67
2023/09/20 05:30:37;;;;;;;3.40;1.20;;;18.60;70.50;;;;;;2373730;53;20929;-68
2023/09/20 05:33:05;;;;;;;3.30;1.10;;;18.60;70.50;;;;;;2348401;53;20922;-69
2023/09/20 05:35:32;;;;;;;3.85;1.33;;;18.60;70.50;;;;;;2370821;53;20935;-67
2023/09/20 05:37:59;;;;;;;2.33;1.10;;;18.50;70.40;;;;;;2369816;53;21427;-67
2023/09/20 05:40:28;;;;;;;2.40;1.10;;;18.50;70.40;;;;;;2610652;52;21007;-68
2023/09/20 05:42:54;;;;;;;2.37;1.10;;;18.50;70.50;;;;;;2358281;53;20946;-67
2023/09/20 05:45:23;;;;;;;3.70;1.05;;;18.50;70.70;;;;;;2369588;53;21692;-67
2023/09/20 05:47:49;;;;;;;3.67;1.42;;;18.50;70.70;;;;;;2370818;53;21474;-66
2023/09/20 05:50:15;;;;;;;2.65;1.17;;;18.40;70.60;;;;;;2370778;53;20938;-69
2023/09/20 05:52:43;;;;;;;5.22;1.37;;;18.40;70.70;;;;;;2370666;53;20937;-66
2023/09/20 05:55:16;;;;;;;2.70;1.23;;;18.40;71.50;;;;;;2623560;52;21738;-68
2023/09/20 05:57:45;;;;;;;2.67;1.20;;;18.40;70.90;;;;;;2349263;53;20934;-67
2023/09/20 06:00:16;;;;;;;3.22;1.20;;;18.40;71.00;;;;;;2370723;53;20971;-67
2023/09/20 06:02:44;;;;;;;4.32;1.75;;;18.50;71.30;;;;;;2622612;52;20942;-67
2023/09/20 06:05:11;;;;;;;2.72;1.27;;;18.50;71.40;;;;;;2370508;53;21021;-69
2023/09/20 06:07:40;;;;;;;3.12;1.17;;;18.50;71.30;;;;;;2622740;52;21015;-68
2023/09/20 06:10:09;;;;;;;2.58;1.20;;;18.50;71.40;;;;;;2623336;52;21431;-67
2023/09/20 06:12:36;;;;;;;2.42;1.00;;;18.50;71.20;;;;;;2370130;53;20946;-68
2023/09/20 06:15:04;;;;;;;2.40;1.00;;;18.50;71.20;;;;;;2370131;53;20929;-69
2023/09/20 06:17:31;;;;;;;2.70;1.17;;;18.50;71.10;;;;;;2369897;53;20922;-70
2023/09/20 06:19:59;;;;;;;4.97;1.00;;;18.60;71.20;;;;;;2622840;52;20915;-68
2023/09/20 06:22:30;;;;;;;2.00;1.02;;;18.50;71.00;;;;;;2370565;53;20915;-68
2023/09/20 06:24:58;;;;;;;2.60;1.02;;;18.60;71.00;;;;;;2370107;53;21017;-69
2023/09/20 06:27:30;;;;;;;4.05;1.30;;;18.50;71.00;;;;;;2622822;52;20934;-67
2023/09/20 06:29:57;;;;;;;1.90;1.08;;;18.60;71.10;;;;;;2370627;53;21875;-67
2023/09/20 06:32:24;;;;;;;2.30;0.95;;;18.60;71.30;;;;;;2370308;53;20949;-66
2023/09/20 06:34:51;;;;;;;4.18;1.12;;;18.60;71.40;;;;;;2349774;53;21042;-66
2023/09/20 06:37:25;;;;;;;2.92;1.17;;;18.60;71.50;;;;;;2370243;53;20923;-68
2023/09/20 06:39:57;;;;;;;6.50;2.05;;;18.60;71.50;;;;;;2621608;52;21496;-67
2023/09/20 06:42:29;;;;;;;2.80;1.17;;;18.60;71.60;;;;;;2370379;53;20926;-66
2023/09/20 06:44:56;;;;;;;2.72;1.15;;;18.70;71.60;;;;;;2370311;53;20890;-66
2023/09/20 06:47:23;;;;;;;2.60;1.17;;;18.70;71.80;;;;;;2622675;52;20939;-66
2023/09/20 06:49:50;;;;;;;2.83;0.90;;;18.70;71.90;;;;;;2370443;53;20976;-67
2023/09/20 06:52:18;;;;;;;2.60;1.20;;;18.70;71.90;;;;;;2370404;53;20954;-68
2023/09/20 06:54:47;;;;;;;2.60;1.17;;;18.70;71.90;;;;;;2623017;52;21005;-67
2023/09/20 06:57:18;;;;;;;2.20;1.00;;;18.80;72.00;;;;;;2623311;52;20926;-66
2023/09/20 06:59:45;;;;;;;4.43;1.30;;;18.80;71.90;;;;;;2370627;53;20962;-67
2023/09/20 07:02:13;;;;;;;2.92;1.00;;;18.80;71.80;;;;;;2623324;52;20973;-66
2023/09/20 07:04:41;;;;;;;2.70;1.17;;;18.90;71.90;;;;;;2623328;52;20982;-67
2023/09/20 07:07:07;;;;;;;3.78;1.15;;;18.90;71.90;;;;;;2371201;53;20950;-69
2023/09/20 07:09:37;;;;;;;2.47;1.02;;;18.90;71.90;;;;;;2343564;53;21048;-67
2023/09/20 07:12:07;;;;;;;3.45;1.40;;;18.90;72.00;;;;;;2580460;53;21591;-65
2023/09/20 07:14:35;;;;;;;2.50;1.23;;;19.00;72.10;;;;;;2589537;52;20980;-68
2023/09/20 07:17:03;;;;;;;2.20;0.95;;;19.00;72.20;;;;;;2346619;54;20980;-66
2023/09/20 07:19:30;;;;;;;3.00;1.27;;;19.10;72.50;;;;;;2358378;53;20926;-67
2023/09/20 07:21:57;;;;;;;2.30;0.90;;;19.10;72.50;;;;;;2363237;53;21021;-69
2023/09/20 07:24:26;;;;;;;3.15;1.20;;;19.10;72.60;;;;;;2351948;53;20906;-68
2023/09/20 07:26:52;;;;;;;2.25;1.10;;;19.20;72.60;;;;;;2368549;53;20930;-66
2023/09/20 07:29:21;;;;;;;2.17;1.15;;;19.20;72.60;;;;;;2622911;52;20930;-67
2023/09/20 07:31:48;;;;;;;4.32;1.40;;;19.20;72.70;;;;;;2370720;53;21395;-69
2023/09/20 07:34:19;;;;;;;3.30;1.40;;;19.30;72.90;;;;;;2624163;52;20998;-67
2023/09/20 07:36:49;;;;;;;2.47;1.27;;;19.40;73.00;;;;;;2601274;52;20982;-68
2023/09/20 07:39:20;;;;;;;2.70;1.10;;;19.50;73.10;;;;;;2366734;53;21531;-67
2023/09/20 07:41:50;;;;;;;2.33;1.27;;;19.50;73.10;;;;;;2622420;52;20935;-68
2023/09/20 07:44:17;;;;;;;3.45;1.10;;;19.60;73.10;;;;;;2370622;53;21450;-70
2023/09/20 07:46:44;;;;;;;4.20;1.20;;;19.60;73.10;;;;;;2362514;53;21022;-67
2023/09/20 07:49:16;;;;;;;2.58;1.27;;;19.70;73.20;;;;;;2609474;52;20922;-67
2023/09/20 07:51:42;;;;;;;2.87;1.27;;;19.80;73.10;;;;;;2624148;52;21710;-67
2023/09/20 07:54:14;;;;;;;3.30;1.45;;;19.80;73.20;;;;;;2622848;52;21514;-68
2023/09/20 07:56:43;;;;;;;2.75;1.10;;;19.90;73.20;;;;;;2623602;52;21013;-70
2023/09/20 07:59:09;;;;;;;1.98;0.88;;;19.90;73.20;;;;;;2352258;53;20925;-67
2023/09/20 08:01:36;;;;;;;3.33;1.48;;;20.00;73.40;;;;;;2589123;52;21464;-69
2023/09/20 08:04:06;;;;;;;2.22;1.00;;;20.10;73.50;;;;;;2588983;52;20928;-70
2023/09/20 08:06:33;;;;;;;3.55;1.40;;;20.10;73.40;;;;;;2589582;52;20967;-68
2023/09/20 08:08:59;;;;;;;2.67;1.23;;;20.20;73.40;;;;;;2350029;53;20925;-67
2023/09/20 08:11:26;;;;;;;2.25;1.12;;;20.30;73.50;;;;;;2360666;53;21006;-69
2023/09/20 08:13:54;;;;;;;3.20;1.08;;;20.40;73.70;;;;;;2342370;53;20933;-68
2023/09/20 08:16:20;;;;;;;2.20;1.00;;;20.40;73.70;;;;;;2342738;53;21007;-70
2023/09/20 08:19:10;;;;;;;2.45;1.10;;;20.50;73.80;;;;;;2588948;52;20949;-68
2023/09/20 08:21:42;;;;;;;1.98;0.88;;;20.60;73.90;;;;;;2371038;53;20970;-68
2023/09/20 09:01:12;;;;;;;1.90;0.88;;;22.00;72.80;;;;;;2588109;52;21045;-69
2023/09/20 09:03:41;;;;;;;3.87;1.20;;;22.10;74.20;;;;;;2338291;53;21531;-67
2023/09/20 09:06:08;;;;;;;2.80;1.10;;;22.20;74.20;;;;;;2342002;53;20988;-68
2023/09/20 09:08:34;;;;;;;4.10;1.40;;;22.30;74.30;;;;;;2588809;52;21022;-68
2023/09/20 09:11:05;;;;;;;2.58;1.17;;;22.40;74.30;;;;;;2354524;53;20945;-69
2023/09/20 09:13:32;;;;;;;3.55;1.75;;;22.40;74.10;;;;;;2595980;52;20933;-69
2023/09/20 09:15:58;;;;;;;2.85;1.15;;;22.50;74.00;;;;;;2343214;53;20909;-70
2023/09/20 09:18:27;;;;;;;2.72;1.23;;;22.60;73.90;;;;;;2582600;52;20999;-69
2023/09/20 09:20:54;;;;;;;3.30;1.35;;;22.70;73.70;;;;;;2361372;53;20985;-69
2023/09/20 09:23:33;;;;;;;5.10;1.40;;;22.80;74.00;;;;;;2370804;53;20978;-68
2023/09/20 09:25:59;;;;;;;2.65;1.17;;;22.90;72.70;;;;;;2623980;52;20962;-71
2023/09/20 09:28:26;;;;;;;2.60;1.20;;;23.00;73.80;;;;;;2371291;53;20954;-69
2023/09/20 09:30:55;;;;;;;3.08;1.25;;;23.10;73.80;;;;;;2350140;53;20990;-69
2023/09/20 09:33:22;;;;;;;3.62;1.30;;;23.20;73.50;;;;;;2370498;53;21002;-68
2023/09/20 09:35:49;;;;;;;2.42;1.10;;;23.30;73.60;;;;;;2623681;52;20970;-68
2023/09/20 09:38:20;;;;;;;2.62;0.98;;;23.40;73.60;;;;;;2609496;52;21038;-68
2023/09/20 09:40:53;;;;;;;2.22;0.90;;;23.40;72.80;;;;;;2568909;53;20966;-69
2023/09/20 09:43:21;;;;;;;2.55;1.00;;;23.50;72.40;;;;;;2603598;52;21498;-69
2023/09/20 09:45:49;;;;;;;3.78;1.05;;;23.60;73.10;;;;;;2370020;53;21010;-69
2023/09/20 09:48:17;;;;;;;2.78;1.00;;;23.70;72.90;;;;;;2370867;53;20990;-68
2023/09/20 09:50:46;;;;;;;3.08;1.15;;;23.80;72.60;;;;;;2623120;52;20943;-69
2023/09/20 09:53:15;;;;;;;3.00;1.00;;;23.80;72.50;;;;;;2621589;52;20922;-70
2023/09/20 09:55:42;;;;;;;2.25;1.08;;;23.90;72.10;;;;;;2618339;52;21007;-69
2023/09/20 09:58:12;;;;;;;3.80;1.12;;;24.00;72.30;;;;;;2349241;53;21131;-69
2023/09/20 10:00:39;;;;;;;2.17;1.15;;;24.10;72.70;;;;;;2622886;52;21018;-69
2023/09/20 10:03:15;;;;;;;3.72;1.35;;;24.10;71.40;;;;;;2622585;52;20943;-69
2023/09/20 10:05:42;;;;;;;3.42;0.90;;;24.20;70.80;;;;;;2604962;52;20943;-68
2023/09/20 10:08:12;;;;;;;3.00;1.00;;;24.30;71.40;;;;;;2363542;53;20974;-68
2023/09/20 10:10:41;;;;;;;2.40;0.93;;;24.40;71.00;;;;;;2624012;52;20887;-71
2023/09/20 10:13:12;;;;;;;1.92;0.73;;;24.40;71.00;;;;;;2370853;53;20918;-70
2023/09/20 10:15:39;;;;;;;2.53;0.98;;;24.50;70.70;;;;;;2371747;53;21018;-67
2023/09/20 10:18:06;;;;;;;3.05;1.08;;;24.50;70.60;;;;;;2623214;52;22539;-70
2023/09/20 10:21:01;;;;;;;3.03;1.25;;;24.60;70.50;;;;;;2623369;52;21066;-67
2023/09/20 10:23:27;;;;;;;3.28;0.98;;;24.70;68.10;;;;;;2371518;53;20930;-69
2023/09/20 10:25:56;;;;;;;3.80;1.10;;;24.70;70.10;;;;;;2623685;52;21005;-67
2023/09/20 10:28:25;;;;;;;2.30;1.10;;;24.80;69.60;;;;;;2370954;53;20974;-68
2023/09/20 10:30:56;;;;;;;1.87;0.90;;;24.80;69.80;;;;;;2370809;53;22046;-71
2023/09/20 10:33:44;;;;;;;3.58;1.37;;;24.80;69.10;;;;;;2370077;53;20946;-70
2023/09/20 10:36:21;;;;;;;2.05;0.95;;;24.90;66.80;;;;;;2623466;52;20911;-69
2023/09/20 10:38:48;;;;;;;2.40;1.05;;;24.90;68.10;;;;;;2339233;54;20968;-67
2023/09/20 10:41:15;;;;;;;2.60;1.10;;;25.00;69.10;;;;;;2342779;54;21045;-68
2023/09/20 10:43:46;;;;;;;1.67;0.80;;;25.00;69.00;;;;;;2623396;52;20946;-68
2023/09/20 10:46:14;;;;;;;2.17;0.80;;;25.10;69.10;;;;;;2623549;52;21669;-67
2023/09/20 10:49:33;;;;;;;2.83;0.95;;;25.20;69.00;;;;;;2371041;53;21342;-68
2023/09/20 10:52:02;;;;;;;2.35;1.00;;;25.20;65.90;;;;;;2371265;53;21006;-67
2023/09/20 10:54:29;;;;;;;2.55;1.00;;;25.20;68.50;;;;;;2622428;52;21727;-67
2023/09/20 10:57:02;;;;;;;3.53;1.20;;;25.30;68.30;;;;;;2601898;52;20939;-67
2023/09/20 10:59:30;;;;;;;1.87;0.95;;;25.40;68.20;;;;;;2367035;53;21073;-67
2023/09/20 11:02:17;;;;;;;3.03;1.00;;;25.40;68.20;;;;;;2623363;52;21013;-69
2023/09/20 11:04:46;;;;;;;2.87;1.00;;;25.50;66.40;;;;;;2624086;52;21007;-67
2023/09/20 11:07:14;;;;;;;2.33;1.00;;;25.50;68.00;;;;;;2350030;53;20945;-67
2023/09/20 11:09:46;;;;;;;3.15;1.23;;;25.60;67.60;;;;;;2370465;53;20957;-66
2023/09/20 11:12:14;;;;;;;2.50;0.80;;;25.60;67.50;;;;;;2370741;53;20974;-66
2023/09/20 11:14:41;;;;;;;2.80;1.00;;;25.70;67.60;;;;;;2353219;53;21034;-67
2023/09/20 11:17:08;;;;;;;2.33;0.90;;;25.70;67.40;;;;;;2363232;53;20962;-67
2023/09/20 11:19:35;;;;;;;2.67;1.27;;;25.70;67.20;;;;;;2605767;52;20958;-67
2023/09/20 11:22:02;;;;;;;2.83;0.93;;;25.80;67.30;;;;;;2370571;53;20986;-67
2023/09/20 11:24:29;;;;;;;2.40;0.88;;;25.80;67.00;;;;;;2369469;53;21537;-67
2023/09/20 11:26:56;;;;;;;3.42;0.98;;;25.90;67.00;;;;;;2370997;53;21017;-68
2023/09/20 11:29:24;;;;;;;2.20;1.00;;;25.90;66.80;;;;;;2622859;52;21061;-68
2023/09/20 11:31:59;;;;;;;2.62;1.10;;;26.00;66.50;;;;;;2623489;52;20930;-67
2023/09/20 11:34:48;;;;;;;2.08;0.90;;;26.00;65.20;;;;;;2623208;52;21018;-66
2023/09/20 11:37:15;;;;;;;2.35;0.90;;;26.00;63.80;;;;;;2621945;52;21139;-67
2023/09/20 11:39:47;;;;;;;2.75;1.10;;;26.10;65.90;;;;;;2370453;53;21032;-67
2023/09/20 11:42:26;;;;;;;2.63;1.10;;;26.10;66.00;;;;;;2370477;53;20959;-67
2023/09/20 11:45:16;;;;;;;2.42;0.93;;;26.10;64.50;;;;;;2338597;54;20953;-66
2023/09/20 11:47:51;;;;;;;2.20;0.90;;;26.20;65.00;;;;;;2615820;52;20914;-66
2023/09/20 11:50:20;;;;;;;2.67;1.12;;;26.20;65.40;;;;;;2621518;52;20962;-68
2023/09/20 11:52:47;;;;;;;3.15;1.20;;;26.20;65.40;;;;;;2370692;53;20898;-69
2023/09/20 11:55:13;;;;;;;2.92;1.00;;;26.30;65.20;;;;;;2369569;53;20950;-66
2023/09/20 11:57:46;;;;;;;2.62;1.08;;;26.30;64.80;;;;;;2370490;53;20942;-67
2023/09/20 12:00:23;;;;;;;2.08;0.90;;;26.40;64.80;;;;;;2369859;53;20898;-66
2023/09/20 12:02:51;;;;;;;2.30;0.77;;;26.40;63.60;;;;;;2370279;53;20906;-67
2023/09/20 12:05:21;;;;;;;2.97;0.95;;;26.40;64.80;;;;;;2615761;52;21514;-70
2023/09/20 12:08:01;;;;;;;2.35;0.80;;;26.50;64.80;;;;;;2615311;52;20897;-67
2023/09/20 12:10:32;;;;;;;2.47;1.02;;;26.50;62.70;;;;;;2614062;52;21860;-68
2023/09/20 12:12:58;;;;;;;2.12;1.00;;;26.60;64.80;;;;;;2365108;53;20903;-69
2023/09/20 12:15:25;;;;;;;2.25;0.85;;;26.60;64.70;;;;;;2623090;52;20906;-65
2023/09/20 12:17:53;;;;;;;2.05;1.00;;;26.60;64.40;;;;;;2623937;52;20918;-66
2023/09/20 12:20:20;;;;;;;2.50;0.90;;;26.70;63.90;;;;;;2364641;53;21209;-67
2023/09/20 12:22:46;;;;;;;2.78;1.08;;;26.70;64.10;;;;;;2622116;52;20986;-67
2023/09/20 12:25:15;;;;;;;2.10;0.90;;;26.80;64.20;;;;;;2370649;53;20927;-66
2023/09/20 12:27:43;;;;;;;2.37;1.00;;;26.80;64.10;;;;;;2370681;53;21081;-67
2023/09/20 12:30:12;;;;;;;3.78;0.90;;;26.90;64.20;;;;;;2370561;53;21499;-67
2023/09/20 12:32:41;;;;;;;2.20;1.00;;;26.90;63.80;;;;;;2367593;53;21230;-66
2023/09/20 12:35:10;;;;;;;2.20;1.02;;;27.00;63.50;;;;;;2370798;53;20982;-69
2023/09/20 12:37:37;;;;;;;2.53;0.98;;;27.00;62.80;;;;;;2622797;52;20930;-66
2023/09/20 12:40:08;;;;;;;2.20;0.88;;;27.10;63.50;;;;;;2623156;52;20986;-67
2023/09/20 12:42:37;;;;;;;4.28;1.23;;;27.10;63.90;;;;;;2623030;52;20985;-68
2023/09/20 12:45:10;;;;;;;2.30;1.05;;;27.20;63.30;;;;;;2622578;52;20974;-69
2023/09/20 12:47:46;;;;;;;2.28;1.00;;;27.20;63.70;;;;;;2370476;53;21002;-66
2023/09/20 12:50:14;;;;;;;2.30;1.15;;;27.30;63.60;;;;;;2370137;53;20945;-66
2023/09/20 12:52:42;;;;;;;2.17;0.90;;;27.30;63.70;;;;;;2370556;53;20942;-67
2023/09/20 12:55:10;;;;;;;2.55;1.08;;;27.40;63.50;;;;;;2622866;52;20926;-67
2023/09/20 12:57:38;;;;;;;2.70;1.02;;;27.40;63.40;;;;;;2370009;53;20931;-66
2023/09/20 13:00:08;;;;;;;1.85;0.90;;;27.50;63.00;;;;;;2370934;53;20942;-69
2023/09/20 13:02:34;;;;;;;4.47;1.08;;;27.50;63.00;;;;;;2622993;52;20946;-66
2023/09/20 13:05:01;;;;;;;2.10;0.90;;;27.60;62.90;;;;;;2371813;53;21755;-69
2023/09/20 13:07:27;;;;;;;2.12;0.88;;;27.60;62.90;;;;;;2370057;53;20965;-68
2023/09/20 13:09:56;;;;;;;2.47;0.93;;;27.70;63.30;;;;;;2370671;53;20907;-68
2023/09/20 13:12:24;;;;;;;1.92;0.80;;;27.70;62.90;;;;;;2623219;52;20966;-66
2023/09/20 13:14:50;;;;;;;2.28;1.00;;;27.70;63.00;;;;;;2371080;53;20970;-69
2023/09/20 13:17:17;;;;;;;2.12;0.95;;;27.80;62.80;;;;;;2370564;53;20930;-66
2023/09/20 13:19:43;;;;;;;1.87;0.85;;;27.80;62.90;;;;;;2370706;53;21018;-66
2023/09/20 13:22:12;;;;;;;2.78;1.20;;;27.90;62.50;;;;;;2623141;52;20926;-69
2023/09/20 13:24:42;;;;;;;2.70;1.20;;;27.90;61.60;;;;;;2371861;53;21400;-68
2023/09/20 13:27:10;;;;;;;2.90;1.00;;;27.90;62.10;;;;;;2623063;52;20918;-65
2023/09/20 13:29:37;;;;;;;2.67;0.82;;;28.00;62.00;;;;;;2370614;53;20983;-68
2023/09/20 13:32:05;;;;;;;2.45;0.90;;;28.00;61.90;;;;;;2623376;52;20927;-67
2023/09/20 13:34:40;;;;;;;2.08;0.80;;;28.10;61.30;;;;;;2370239;53;21014;-66